Time;durP1;ratioP1;P1;durP2;ratioP2;P2;SDS_P1;SDS_P2;PMS_P1;PMS_P2;Temp;Humidity;BMP_temperature;BMP_pressure;BME280_temperature;BME280_humidity;BME280_pressure;Samples;Min_cycle;Max_cycle;Signal;HPM_P1;HPM_P2
2023/03/03 00:01:29;;;;;;;42.88;18.02;;;;;;;-0.34;100.00;102317.75;4963441;28;20109;-78
2023/03/03 00:03:55;;;;;;;43.70;17.95;;;;;;;-0.27;100.00;102329.34;4969884;28;20121;-79
2023/03/03 00:06:20;;;;;;;40.13;17.30;;;;;;;-0.26;100.00;102326.66;4957254;28;20364;-79
2023/03/03 00:08:46;;;;;;;44.03;17.48;;;;;;;-0.23;100.00;102322.19;4954251;28;20046;-78
2023/03/03 00:11:12;;;;;;;47.13;18.42;;;;;;;-0.20;100.00;102319.50;4954040;28;20045;-78
2023/03/03 00:13:53;;;;;;;43.13;16.58;;;;;;;-0.14;100.00;102328.41;4952508;28;20042;-78
2023/03/03 00:16:30;;;;;;;43.70;17.40;;;;;;;-0.09;100.00;102320.38;4954579;28;20039;-77
2023/03/03 00:18:56;;;;;;;41.42;17.25;;;;;;;-0.04;100.00;102332.81;4974044;28;20121;-78
2023/03/03 00:21:32;;;;;;;45.10;17.85;;;;;;;0.03;100.00;102340.78;4973319;28;20125;-78
2023/03/03 00:24:35;;;;;;;41.45;15.35;;;;;;;0.10;100.00;102334.53;4973877;28;20039;-78
2023/03/03 00:27:16;;;;;;;39.88;16.92;;;;;;;0.15;100.00;102330.03;4955186;28;20137;-82
2023/03/03 00:29:55;;;;;;;37.85;15.07;;;;;;;0.19;100.00;102330.03;4953695;28;20620;-79
2023/03/03 00:32:22;;;;;;;32.65;11.40;;;;;;;0.32;100.00;102344.19;4952927;28;20043;-82
2023/03/03 00:34:49;;;;;;;42.20;17.77;;;;;;;0.29;100.00;102335.31;4943616;29;20043;-81
2023/03/03 00:37:33;;;;;;;42.72;18.33;;;;;;;0.28;100.00;102329.06;4954367;29;20102;-80
2023/03/03 00:40:22;;;;;;;35.22;16.25;;;;;;;0.30;100.00;102329.94;4953003;28;20090;-79
2023/03/03 00:42:51;;;;;;;38.55;17.05;;;;;;;0.25;100.00;102329.97;4936613;29;20043;-79
2023/03/03 00:45:42;;;;;;;36.45;15.52;;;;;;;0.25;100.00;102337.13;4958249;28;20023;-79
2023/03/03 00:48:29;;;;;;;43.03;17.20;;;;;;;0.26;100.00;102341.56;4952795;29;20167;-79
2023/03/03 00:50:57;;;;;;;40.72;16.30;;;;;;;0.19;100.00;102337.16;4952234;29;20050;-79
2023/03/03 00:53:25;;;;;;;42.20;15.88;;;;;;;0.21;100.00;102338.03;4952555;28;20050;-79
2023/03/03 00:55:51;;;;;;;38.50;16.35;;;;;;;0.18;100.00;102335.34;4951001;29;20072;-79
2023/03/03 00:58:20;;;;;;;36.83;15.82;;;;;;;0.15;100.00;102330.94;4952986;28;20166;-79
2023/03/03 01:00:48;;;;;;;33.80;14.45;;;;;;;0.19;100.00;102345.19;4952277;28;20028;-77
2023/03/03 01:03:24;;;;;;;34.97;15.20;;;;;;;0.14;100.00;102330.91;4952271;29;20031;-78
2023/03/03 01:05:51;;;;;;;38.30;14.20;;;;;;;0.17;100.00;102345.16;4951624;28;20042;-78
2023/03/03 01:08:18;;;;;;;35.40;12.35;;;;;;;0.17;100.00;102350.53;4953300;29;20490;-78
2023/03/03 01:10:56;;;;;;;39.95;15.15;;;;;;;0.16;100.00;102347.88;4938240;29;20035;-81
2023/03/03 01:13:25;;;;;;;38.58;16.67;;;;;;;0.20;100.00;102347.84;4936070;28;20058;-79
2023/03/03 01:15:50;;;;;;;42.13;16.83;;;;;;;0.21;100.00;102346.06;4951467;28;20046;-78
2023/03/03 01:18:16;;;;;;;37.88;15.43;;;;;;;0.22;100.00;102354.06;4935120;29;20047;-80
2023/03/03 01:20:41;;;;;;;43.00;17.42;;;;;;;0.21;100.00;102349.63;4951815;29;20054;-79
2023/03/03 01:23:07;;;;;;;45.97;16.13;;;;;;;0.23;100.00;102360.31;4936121;29;20467;-81
2023/03/03 01:25:33;;;;;;;34.88;16.30;;;;;;;0.21;100.00;102352.28;4951282;28;20101;-78
2023/03/03 01:27:58;;;;;;;39.33;16.85;;;;;;;0.23;100.00;102352.28;4951698;28;20047;-79
2023/03/03 01:30:24;;;;;;;42.25;18.83;;;;;;;0.29;100.00;102356.72;4964199;28;20490;-79
2023/03/03 01:32:50;;;;;;;32.65;15.10;;;;;;;0.29;100.00;102344.22;4951428;29;20125;-78
2023/03/03 01:35:16;;;;;;;35.63;15.00;;;;;;;0.32;100.00;102351.34;4952852;28;20139;-80
2023/03/03 01:37:42;;;;;;;36.38;15.82;;;;;;;0.33;100.00;102355.81;4951666;29;20055;-79
2023/03/03 01:40:16;;;;;;;34.47;15.35;;;;;;;0.36;100.00;102364.69;4951284;28;20035;-77
2023/03/03 01:42:41;;;;;;;38.15;15.32;;;;;;;0.36;100.00;102363.81;4951402;29;20050;-78
2023/03/03 01:45:21;;;;;;;43.67;17.02;;;;;;;0.35;100.00;102367.38;4955828;28;20447;-78
2023/03/03 01:47:58;;;;;;;35.85;15.52;;;;;;;0.33;100.00;102366.53;4951540;29;20062;-78
2023/03/03 01:50:32;;;;;;;42.22;17.20;;;;;;;0.34;100.00;102360.25;4951097;29;20074;-79
2023/03/03 01:52:59;;;;;;;37.40;14.82;;;;;;;0.32;100.00;102362.03;4951452;29;20039;-78
2023/03/03 01:55:30;;;;;;;41.45;15.75;;;;;;;0.35;100.00;102364.72;4949236;29;20062;-78
2023/03/03 01:58:04;;;;;;;33.60;14.80;;;;;;;0.30;100.00;102358.50;4950404;28;20059;-79
2023/03/03 02:00:31;;;;;;;37.15;15.68;;;;;;;0.30;100.00;102363.84;4919455;29;20424;-78
2023/03/03 02:02:57;;;;;;;41.72;15.07;;;;;;;0.24;100.00;102364.78;4951392;29;20045;-78
2023/03/03 02:05:23;;;;;;;41.88;15.95;;;;;;;0.14;100.00;102363.94;4950806;28;20110;-79
2023/03/03 02:07:50;;;;;;;38.28;16.42;;;;;;;0.08;100.00;102352.34;4966291;28;20070;-77
2023/03/03 02:10:19;;;;;;;35.90;15.05;;;;;;;0.03;100.00;102363.09;4951653;28;20526;-78
2023/03/03 02:12:53;;;;;;;29.77;13.65;;;;;;;0.03;100.00;102373.78;4952164;29;20047;-77
2023/03/03 02:15:22;;;;;;;36.47;14.00;;;;;;;-0.05;100.00;102364.91;4952039;28;20183;-79
2023/03/03 02:18:15;;;;;;;33.15;14.77;;;;;;;-0.05;100.00;102367.56;4950450;28;20043;-78
2023/03/03 02:20:47;;;;;;;38.90;14.45;;;;;;;-0.10;100.00;102367.59;4933593;29;20058;-78
2023/03/03 02:23:23;;;;;;;34.67;14.63;;;;;;;-0.12;100.00;102365.84;4951691;28;20035;-78
2023/03/03 02:25:55;;;;;;;35.72;14.27;;;;;;;-0.15;100.00;102368.50;4950240;28;20349;-78
2023/03/03 02:28:27;;;;;;;38.08;15.65;;;;;;;-0.21;100.00;102373.88;4950389;28;20305;-78
2023/03/03 02:30:55;;;;;;;24.95;11.27;;;;;;;-0.25;100.00;102364.97;4949345;29;20032;-78
2023/03/03 02:33:21;;;;;;;34.55;15.20;;;;;;;-0.33;100.00;102364.09;4950547;29;20292;-78
2023/03/03 02:35:47;;;;;;;36.83;13.00;;;;;;;-0.30;100.00;102374.81;4952003;29;20435;-79
2023/03/03 02:38:29;;;;;;;39.78;14.27;;;;;;;-0.38;100.00;102366.78;4951791;29;20468;-79
2023/03/03 02:41:09;;;;;;;39.22;15.10;;;;;;;-0.34;100.00;102363.22;4951637;28;20479;-80
2023/03/03 02:44:07;;;;;;;31.90;14.05;;;;;;;-0.33;100.00;102362.34;4951228;28;20043;-76
2023/03/03 02:46:35;;;;;;;31.85;13.68;;;;;;;-0.34;100.00;102359.66;4951393;28;20559;-78
2023/03/03 02:49:03;;;;;;;37.28;14.15;;;;;;;-0.34;100.00;102357.88;4950255;28;20117;-79
2023/03/03 02:51:29;;;;;;;39.45;14.82;;;;;;;-0.34;100.00;102352.53;4950496;29;20035;-77
2023/03/03 02:53:54;;;;;;;39.17;14.82;;;;;;;-0.34;100.00;102357.88;4950039;29;20114;-79
2023/03/03 02:56:19;;;;;;;39.33;14.60;;;;;;;-0.32;100.00;102358.78;4950330;28;20112;-78
2023/03/03 02:58:45;;;;;;;39.78;15.25;;;;;;;-0.32;100.00;102360.56;4933394;29;20054;-78
2023/03/03 03:01:11;;;;;;;36.03;14.75;;;;;;;-0.31;100.00;102362.34;4926061;29;20046;-77
2023/03/03 03:03:37;;;;;;;29.73;12.75;;;;;;;-0.31;100.00;102356.97;4950418;29;20085;-79
2023/03/03 03:06:05;;;;;;;36.25;15.35;;;;;;;-0.29;100.00;102364.09;4949746;29;20039;-78
2023/03/03 03:08:30;;;;;;;42.97;15.45;;;;;;;-0.28;100.00;102368.56;4949795;28;20430;-79
2023/03/03 03:10:56;;;;;;;32.05;12.77;;;;;;;-0.29;100.00;102372.09;4951096;28;20039;-78
2023/03/03 03:13:23;;;;;;;33.47;14.35;;;;;;;-0.27;100.00;102364.09;4949550;28;20118;-78
2023/03/03 03:15:49;;;;;;;36.30;15.05;;;;;;;-0.28;100.00;102367.66;4948594;29;20463;-77
2023/03/03 03:18:15;;;;;;;37.65;14.90;;;;;;;-0.26;100.00;102374.78;4951032;29;20030;-79
2023/03/03 03:20:42;;;;;;;38.50;15.90;;;;;;;-0.28;100.00;102368.56;4945831;28;20144;-77
2023/03/03 03:23:09;;;;;;;44.00;17.30;;;;;;;-0.23;100.00;102370.31;4951325;28;20070;-78
2023/03/03 03:25:41;;;;;;;39.63;15.70;;;;;;;-0.25;100.00;102367.66;4932650;29;20027;-82
2023/03/03 03:28:07;;;;;;;32.33;12.48;;;;;;;-0.20;100.00;102379.22;4917714;28;20102;-79
2023/03/03 03:30:34;;;;;;;30.80;12.75;;;;;;;-0.24;100.00;102377.44;4950840;28;20031;-77
2023/03/03 03:33:00;;;;;;;36.08;14.50;;;;;;;-0.23;100.00;102386.34;4933753;29;20118;-77
2023/03/03 03:35:26;;;;;;;29.88;12.15;;;;;;;-0.26;100.00;102381.91;4933954;29;20031;-80
2023/03/03 03:37:52;;;;;;;32.35;13.38;;;;;;;-0.37;100.00;102365.91;4933627;29;20145;-77
2023/03/03 03:40:18;;;;;;;33.38;13.05;;;;;;;-0.31;100.00;102389.06;4948591;28;20467;-77
2023/03/03 03:42:43;;;;;;;29.45;13.02;;;;;;;-0.37;100.00;102379.28;4949425;29;20057;-79
2023/03/03 03:45:14;;;;;;;36.35;14.10;;;;;;;-0.37;100.00;102381.97;4954732;28;20426;-78
2023/03/03 03:47:41;;;;;;;30.53;12.00;;;;;;;-0.38;100.00;102381.94;4950932;29;20489;-79
2023/03/03 03:50:08;;;;;;;23.48;11.00;;;;;;;-0.43;100.00;102375.72;4949646;29;20279;-79
2023/03/03 03:52:33;;;;;;;26.90;12.63;;;;;;;-0.46;100.00;102381.97;4950319;28;20035;-78
2023/03/03 03:55:00;;;;;;;33.53;12.15;;;;;;;-0.48;100.00;102381.06;4949709;28;20093;-79
2023/03/03 03:57:25;;;;;;;32.80;12.25;;;;;;;-0.48;100.00;102391.78;4948170;28;20039;-78
2023/03/03 03:59:51;;;;;;;25.83;11.13;;;;;;;-0.48;100.00;102382.88;4947362;28;20081;-79
2023/03/03 04:02:17;;;;;;;36.30;14.00;;;;;;;-0.48;100.00;102385.53;4949174;29;20042;-78
2023/03/03 04:04:42;;;;;;;36.47;13.23;;;;;;;-0.48;100.00;102383.75;4949627;29;20105;-78
2023/03/03 04:07:08;;;;;;;32.85;13.35;;;;;;;-0.49;100.00;102390.00;4933425;29;20023;-79
2023/03/03 04:09:34;;;;;;;33.10;12.85;;;;;;;-0.43;100.00;102391.75;4933042;29;20035;-78
2023/03/03 04:12:00;;;;;;;34.53;12.90;;;;;;;-0.45;100.00;102390.88;4948471;28;20045;-79
2023/03/03 04:14:26;;;;;;;25.63;12.45;;;;;;;-0.43;100.00;102399.78;4949346;28;20035;-79
2023/03/03 04:16:51;;;;;;;38.65;15.57;;;;;;;-0.45;100.00;102393.56;4933580;29;20042;-78
2023/03/03 04:19:17;;;;;;;37.22;12.32;;;;;;;-0.47;100.00;102395.34;4933443;29;20050;-78
2023/03/03 04:21:43;;;;;;;33.25;15.00;;;;;;;-0.45;100.00;102397.13;4932988;29;20069;-78
2023/03/03 04:24:08;;;;;;;39.85;14.00;;;;;;;-0.44;100.00;102384.66;4948937;28;20135;-77
2023/03/03 04:26:34;;;;;;;31.25;13.35;;;;;;;-0.45;100.00;102385.53;4948638;28;20067;-79
2023/03/03 04:29:01;;;;;;;35.28;13.27;;;;;;;-0.40;100.00;102394.44;4959188;28;20040;-78
2023/03/03 04:31:27;;;;;;;29.08;11.52;;;;;;;-0.39;100.00;102394.44;4949025;28;20082;-78
2023/03/03 04:33:53;;;;;;;29.20;11.80;;;;;;;-0.37;100.00;102392.66;4949066;29;20475;-79
2023/03/03 04:36:20;;;;;;;28.90;12.73;;;;;;;-0.35;100.00;102398.88;4949124;29;20298;-78
2023/03/03 04:38:47;;;;;;;28.23;10.02;;;;;;;-0.33;100.00;102398.88;4941930;29;20031;-79
2023/03/03 04:41:13;;;;;;;32.45;11.88;;;;;;;-0.32;100.00;102398.88;4948665;28;20042;-80
2023/03/03 04:43:39;;;;;;;36.08;12.63;;;;;;;-0.29;100.00;102408.66;4948703;28;20048;-79
2023/03/03 04:46:05;;;;;;;36.55;13.77;;;;;;;-0.31;100.00;102399.75;4954594;28;20502;-78
2023/03/03 04:48:30;;;;;;;32.17;12.13;;;;;;;-0.27;100.00;102398.88;4949088;29;20058;-78
2023/03/03 04:50:56;;;;;;;28.15;11.73;;;;;;;-0.27;100.00;102402.44;4949670;28;20035;-79
2023/03/03 04:53:21;;;;;;;35.03;12.20;;;;;;;-0.24;100.00;102403.31;4952297;28;20035;-78
2023/03/03 04:55:52;;;;;;;26.95;11.77;;;;;;;-0.21;100.00;102400.63;4951052;29;20031;-80
2023/03/03 04:58:20;;;;;;;25.90;11.20;;;;;;;-0.20;100.00;102389.91;4935695;28;20071;-78
2023/03/03 05:00:46;;;;;;;30.60;11.95;;;;;;;-0.18;100.00;102411.31;4952143;28;20466;-79
2023/03/03 05:03:12;;;;;;;29.35;11.35;;;;;;;-0.15;100.00;102404.16;4953741;29;20122;-78
2023/03/03 05:05:39;;;;;;;28.23;11.52;;;;;;;-0.16;100.00;102399.72;4952089;28;20032;-78
2023/03/03 05:08:05;;;;;;;30.15;11.10;;;;;;;-0.14;100.00;102397.94;4952239;29;20046;-80
2023/03/03 05:10:31;;;;;;;36.00;11.60;;;;;;;-0.19;100.00;102390.81;4953342;28;20443;-79
2023/03/03 05:12:56;;;;;;;30.05;11.50;;;;;;;-0.12;100.00;102403.28;4953965;29;20097;-80
2023/03/03 05:15:21;;;;;;;32.67;12.00;;;;;;;-0.11;100.00;102399.69;4953082;28;20114;-79
2023/03/03 05:17:47;;;;;;;34.20;12.40;;;;;;;-0.10;100.00;102401.47;4953178;28;20042;-79
2023/03/03 05:20:13;;;;;;;34.28;12.65;;;;;;;-0.08;100.00;102405.94;4951996;29;20448;-80
2023/03/03 05:22:38;;;;;;;36.72;11.70;;;;;;;-0.08;100.00;102405.06;4953220;29;20541;-81
2023/03/03 05:25:04;;;;;;;29.77;10.52;;;;;;;-0.08;100.00;102400.59;4951570;28;20042;-78
2023/03/03 05:27:30;;;;;;;30.42;10.65;;;;;;;-0.07;100.00;102401.47;4953752;28;20043;-78
2023/03/03 05:29:56;;;;;;;27.17;11.13;;;;;;;0.12;100.00;102418.34;4950518;28;20479;-77
2023/03/03 05:32:21;;;;;;;31.33;11.05;;;;;;;0.04;100.00;102404.09;4951615;29;20042;-77
2023/03/03 05:34:47;;;;;;;33.63;10.25;;;;;;;0.05;100.00;102408.53;4951156;28;20050;-77
2023/03/03 05:37:14;;;;;;;28.98;11.48;;;;;;;0.10;100.00;102407.66;4951624;29;20043;-77
2023/03/03 05:39:39;;;;;;;32.65;12.18;;;;;;;0.06;100.00;102410.34;4951384;28;20039;-77
2023/03/03 05:42:04;;;;;;;42.08;12.30;;;;;;;0.10;100.00;102417.47;4935298;29;20020;-77
2023/03/03 05:44:30;;;;;;;37.03;11.85;;;;;;;0.12;100.00;102415.66;4947071;28;20038;-79
2023/03/03 05:46:56;;;;;;;34.80;11.40;;;;;;;0.14;100.00;102419.22;4934458;29;20071;-79
2023/03/03 05:49:22;;;;;;;32.45;12.27;;;;;;;0.16;100.00;102415.66;4951701;29;20058;-79
2023/03/03 05:51:47;;;;;;;33.70;12.35;;;;;;;0.15;100.00;102415.66;4919393;29;20035;-78
2023/03/03 05:54:12;;;;;;;31.70;12.35;;;;;;;0.19;100.00;102412.09;4951138;28;20035;-78
2023/03/03 05:56:38;;;;;;;34.25;12.38;;;;;;;0.20;100.00;102416.53;4935245;29;20436;-80
2023/03/03 05:59:03;;;;;;;30.33;12.40;;;;;;;0.21;100.00;102419.19;4952218;28;20499;-78
2023/03/03 06:01:29;;;;;;;35.55;12.52;;;;;;;0.22;100.00;102420.97;4950171;29;20456;-78
2023/03/03 06:03:54;;;;;;;34.63;12.50;;;;;;;0.26;100.00;102421.84;4950404;28;20043;-79
2023/03/03 06:06:20;;;;;;;39.63;12.82;;;;;;;0.26;100.00;102419.19;4951497;29;20547;-79
2023/03/03 06:08:45;;;;;;;32.03;12.70;;;;;;;0.28;100.00;102420.06;4950646;28;20483;-79
2023/03/03 06:11:11;;;;;;;35.80;12.30;;;;;;;0.27;100.00;102420.94;4950855;28;20039;-81
2023/03/03 06:13:37;;;;;;;37.00;14.18;;;;;;;0.29;100.00;102421.84;4951017;28;20039;-81
2023/03/03 06:16:02;;;;;;;38.58;13.15;;;;;;;0.31;100.00;102424.50;4952062;28;20098;-81
2023/03/03 06:18:28;;;;;;;40.15;13.75;;;;;;;0.31;100.00;102424.50;4952284;28;20039;-79
2023/03/03 06:20:53;;;;;;;37.60;12.77;;;;;;;0.32;100.00;102431.63;4951994;28;20032;-78
2023/03/03 06:23:20;;;;;;;32.10;13.25;;;;;;;0.32;100.00;102431.63;4950589;29;20035;-77
2023/03/03 06:25:46;;;;;;;39.65;13.32;;;;;;;0.33;100.00;102431.66;4951601;28;20046;-77
2023/03/03 06:28:12;;;;;;;40.60;14.40;;;;;;;0.35;100.00;102440.56;4949976;28;20035;-78
2023/03/03 06:30:38;;;;;;;35.70;12.65;;;;;;;0.34;100.00;102444.13;4951541;28;20554;-78
2023/03/03 06:33:04;;;;;;;36.92;13.57;;;;;;;0.37;100.00;102448.56;4951480;28;20118;-78
2023/03/03 06:35:29;;;;;;;42.42;13.20;;;;;;;0.38;100.00;102451.25;4951002;29;20035;-79
2023/03/03 06:37:55;;;;;;;40.83;14.10;;;;;;;0.38;100.00;102453.94;4950298;29;20046;-79
2023/03/03 06:40:20;;;;;;;40.65;13.00;;;;;;;0.39;100.00;102455.69;4951874;28;20152;-79
2023/03/03 06:42:45;;;;;;;38.42;13.13;;;;;;;0.44;100.00;102466.38;4950310;29;20468;-79
2023/03/03 06:45:11;;;;;;;42.35;14.32;;;;;;;0.45;100.00;102460.13;4951312;28;20053;-80
2023/03/03 06:47:36;;;;;;;42.45;13.23;;;;;;;0.43;100.00;102462.81;4934509;29;20558;-79
2023/03/03 06:50:02;;;;;;;37.30;14.18;;;;;;;0.48;100.00;102466.38;4955988;28;20042;-78
2023/03/03 06:52:27;;;;;;;42.28;14.32;;;;;;;0.49;100.00;102475.28;4937773;28;20133;-79
2023/03/03 06:54:55;;;;;;;36.92;13.82;;;;;;;0.46;100.00;102469.94;4970732;28;20117;-80
2023/03/03 06:57:25;;;;;;;40.03;14.27;;;;;;;0.54;100.00;102486.88;4950916;28;20188;-79
2023/03/03 06:59:54;;;;;;;38.20;15.43;;;;;;;0.55;100.00;102485.06;4949442;28;20031;-80
2023/03/03 07:02:20;;;;;;;35.13;12.20;;;;;;;0.55;100.00;102479.72;4951666;28;20055;-80
2023/03/03 07:04:46;;;;;;;35.65;12.55;;;;;;;0.52;100.00;102477.97;4951934;28;20069;-80
2023/03/03 07:07:25;;;;;;;38.13;13.30;;;;;;;0.59;100.00;102487.72;4950172;29;20503;-79
2023/03/03 07:09:55;;;;;;;35.17;13.23;;;;;;;0.61;100.00;102487.75;4949847;28;20286;-78
2023/03/03 07:12:30;;;;;;;34.60;13.38;;;;;;;0.59;100.00;102485.06;4950626;28;20314;-78
2023/03/03 07:15:15;;;;;;;39.00;12.73;;;;;;;0.59;100.00;102482.38;4947825;28;20035;-80
2023/03/03 07:17:47;;;;;;;33.72;11.90;;;;;;;0.64;100.00;102487.72;4950029;29;20042;-78
2023/03/03 07:20:23;;;;;;;30.42;11.50;;;;;;;0.66;100.00;102489.50;4934090;29;20105;-78
2023/03/03 07:22:50;;;;;;;32.60;11.77;;;;;;;0.69;100.00;102493.94;4933958;29;20094;-77
2023/03/03 07:25:24;;;;;;;36.30;13.88;;;;;;;0.71;100.00;102497.50;4950794;28;20403;-80
2023/03/03 07:27:51;;;;;;;42.88;15.40;;;;;;;0.70;100.00;102496.63;4949331;28;20086;-79
2023/03/03 07:30:19;;;;;;;42.55;14.55;;;;;;;0.73;100.00;102504.63;4934161;28;20034;-78
2023/03/03 07:32:52;;;;;;;33.38;12.85;;;;;;;0.72;100.00;102496.59;4949717;29;20051;-80
2023/03/03 07:35:34;;;;;;;;;;;;;;;0.77;100.00;102501.03;4950311;29;20376;-80
2023/03/03 07:37:59;;;;;;;30.92;11.63;;;;;;;0.77;100.00;102510.84;4947641;29;19961;-78
2023/03/03 07:40:35;;;;;;;36.78;12.85;;;;;;;0.82;100.00;102509.03;4950731;28;20043;-77
2023/03/03 07:43:19;;;;;;;32.35;12.95;;;;;;;0.83;100.00;102508.13;4950679;29;20031;-79
2023/03/03 07:45:45;;;;;;;28.83;12.50;;;;;;;0.79;99.81;102503.69;4947849;28;20035;-80
2023/03/03 07:48:35;;;;;;;38.88;12.73;;;;;;;0.88;99.88;102518.81;4917428;29;20478;-79
2023/03/03 07:51:12;;;;;;;30.40;13.07;;;;;;;0.88;99.41;102513.47;4933478;28;20439;-80
2023/03/03 07:53:37;;;;;;;38.45;12.50;;;;;;;0.87;99.75;102515.25;4950668;29;20479;-78
2023/03/03 07:56:32;;;;;;;33.67;11.30;;;;;;;0.97;98.96;102525.03;4949074;28;20058;-82
2023/03/03 07:59:01;;;;;;;34.38;12.00;;;;;;;0.94;98.83;102525.06;4936772;29;20055;-82
2023/03/03 08:01:42;;;;;;;34.88;11.32;;;;;;;0.98;97.99;102533.97;4950835;28;20054;-81
2023/03/03 08:04:21;;;;;;;29.13;11.40;;;;;;;0.94;98.14;102526.84;4950611;28;20043;-80
2023/03/03 08:06:55;;;;;;;28.58;11.32;;;;;;;0.98;98.01;102536.66;4949675;29;20426;-80
2023/03/03 08:09:30;;;;;;;35.83;12.07;;;;;;;1.01;98.73;102532.16;4950610;29;20088;-78
2023/03/03 08:12:18;;;;;;;29.75;11.68;;;;;;;1.04;98.50;102538.41;4963702;28;20398;-80
2023/03/03 08:14:44;;;;;;;31.13;11.20;;;;;;;1.08;98.58;102535.69;4956366;28;20118;-81
2023/03/03 08:17:12;;;;;;;31.73;12.15;;;;;;;1.12;98.16;102544.59;4950580;28;20136;-78
2023/03/03 08:19:38;;;;;;;36.08;13.00;;;;;;;1.13;98.07;102538.34;4951002;28;20043;-79
2023/03/03 08:22:18;;;;;;;29.58;11.27;;;;;;;1.15;98.19;102553.50;4950369;29;20528;-79
2023/03/03 08:24:44;;;;;;;35.33;13.70;;;;;;;1.14;98.84;102550.84;4950559;29;20047;-81
2023/03/03 08:27:09;;;;;;;31.17;11.48;;;;;;;1.14;99.11;102545.50;4952799;28;20050;-78
2023/03/03 08:29:35;;;;;;;43.65;15.13;;;;;;;1.08;99.23;102533.03;4953309;28;20475;-77
2023/03/03 08:32:03;;;;;;;36.80;13.40;;;;;;;1.13;99.23;102546.41;4953842;28;20043;-80
2023/03/03 08:34:28;;;;;;;37.03;13.45;;;;;;;1.21;99.33;102549.91;4952689;28;20140;-78
2023/03/03 08:36:57;;;;;;;35.55;13.55;;;;;;;1.18;98.75;102548.16;4954228;29;20190;-81
2023/03/03 08:39:22;;;;;;;35.13;12.68;;;;;;;1.21;100.00;102545.47;4952521;29;20043;-78
2023/03/03 08:41:47;;;;;;;30.30;13.18;;;;;;;1.32;98.97;102555.22;4954335;28;20514;-79
2023/03/03 08:44:13;;;;;;;42.88;13.90;;;;;;;1.36;99.50;102565.03;4954034;28;20035;-82
2023/03/03 08:46:38;;;;;;;36.42;12.98;;;;;;;1.35;98.38;102556.06;4957966;28;20149;-80
2023/03/03 08:49:03;;;;;;;33.83;13.65;;;;;;;1.38;98.29;102556.03;4952697;29;20198;-80
2023/03/03 08:51:29;;;;;;;28.77;12.80;;;;;;;1.41;97.78;102571.25;4951302;29;20031;-81
2023/03/03 08:53:54;;;;;;;28.75;11.52;;;;;;;1.41;97.66;102573.91;4952505;29;20039;-80
2023/03/03 08:56:20;;;;;;;30.55;10.55;;;;;;;1.40;97.36;102582.84;4953208;28;20322;-81
2023/03/03 08:58:46;;;;;;;28.52;10.63;;;;;;;1.39;97.41;102571.22;4934475;29;20047;-78
2023/03/03 09:01:15;;;;;;;30.95;11.18;;;;;;;1.40;96.81;102575.72;4942038;29;20040;-78
2023/03/03 09:03:41;;;;;;;33.65;11.25;;;;;;;1.45;97.17;102575.69;4934537;29;20044;-80
2023/03/03 09:06:06;;;;;;;28.48;11.60;;;;;;;1.48;96.90;102573.84;4934176;29;20063;-79
2023/03/03 09:08:32;;;;;;;22.23;8.50;;;;;;;1.52;96.38;102569.34;4949298;29;20484;-79
2023/03/03 09:10:57;;;;;;;23.02;9.57;;;;;;;1.55;96.14;102577.41;4933663;29;20106;-80
2023/03/03 09:13:22;;;;;;;23.75;10.48;;;;;;;1.56;96.10;102579.16;4948977;29;20035;-79
2023/03/03 09:15:49;;;;;;;24.63;9.82;;;;;;;1.64;96.37;102579.13;4945454;29;20035;-79
2023/03/03 09:18:18;;;;;;;23.30;10.52;;;;;;;1.72;96.22;102575.44;4932997;29;20058;-81
2023/03/03 09:20:46;;;;;;;26.83;10.30;;;;;;;1.76;96.25;102581.69;4934368;29;20050;-81
2023/03/03 09:23:32;;;;;;;22.08;9.95;;;;;;;1.85;96.27;102584.31;4933335;29;20031;-79
2023/03/03 09:26:21;;;;;;;18.67;9.38;;;;;;;1.90;95.71;102586.94;4934280;29;20043;-76
2023/03/03 09:28:46;;;;;;;19.15;7.57;;;;;;;1.91;95.34;102584.28;4933574;29;20457;-78
2023/03/03 09:31:26;;;;;;;21.13;8.63;;;;;;;2.00;95.20;102586.84;4957616;28;20125;-80
2023/03/03 09:33:56;;;;;;;22.17;9.50;;;;;;;2.08;94.99;102586.78;4941342;28;20095;-80
2023/03/03 09:36:27;;;;;;;22.35;9.02;;;;;;;2.18;93.32;102592.94;4933819;29;20039;-79
2023/03/03 09:38:55;;;;;;;23.67;9.55;;;;;;;2.20;92.74;102594.75;4947829;28;20036;-80
2023/03/03 09:41:42;;;;;;;22.60;9.48;;;;;;;2.27;93.78;102585.69;4948337;28;20249;-81
2023/03/03 09:44:29;;;;;;;19.50;8.23;;;;;;;2.36;93.05;102589.22;4933322;29;20071;-78
2023/03/03 09:47:06;;;;;;;18.48;8.45;;;;;;;2.46;93.41;102591.75;4933613;29;20043;-78
2023/03/03 09:49:48;;;;;;;18.02;7.78;;;;;;;2.47;91.35;102600.72;4947894;29;20044;-78
2023/03/03 09:52:39;;;;;;;19.55;8.32;;;;;;;2.49;91.61;102597.13;4948231;29;20044;-80
2023/03/03 09:55:26;;;;;;;17.60;8.07;;;;;;;2.51;91.63;102600.66;4951392;29;20070;-79
2023/03/03 09:58:12;;;;;;;19.52;7.22;;;;;;;2.53;91.56;102603.34;4938745;29;20051;-79
2023/03/03 10:00:41;;;;;;;19.95;7.45;;;;;;;2.53;91.75;102604.25;4950943;29;20052;-78
2023/03/03 10:03:34;;;;;;;16.40;7.03;;;;;;;2.58;92.35;102601.50;4952478;29;20432;-78
2023/03/03 10:06:20;;;;;;;18.90;7.07;;;;;;;2.55;92.35;102598.84;4951152;28;20591;-80
2023/03/03 10:09:02;;;;;;;22.05;8.57;;;;;;;2.67;91.88;102600.53;4952480;29;20039;-79
2023/03/03 10:11:52;;;;;;;17.63;7.75;;;;;;;2.70;90.50;102608.53;4952525;28;20491;-79
2023/03/03 10:14:27;;;;;;;17.48;7.40;;;;;;;2.72;90.48;102601.34;4952136;28;20035;-80
2023/03/03 10:17:00;;;;;;;26.00;7.60;;;;;;;2.80;90.55;102599.47;4951338;28;20039;-79
2023/03/03 10:19:33;;;;;;;20.00;7.30;;;;;;;2.89;90.36;102603.81;4951409;29;20483;-79
2023/03/03 10:22:23;;;;;;;14.27;5.95;;;;;;;2.92;89.71;102609.16;4952900;28;20055;-79
2023/03/03 10:25:02;;;;;;;14.25;6.82;;;;;;;2.87;89.17;102611.91;4952196;29;20133;-80
2023/03/03 10:27:49;;;;;;;17.48;7.20;;;;;;;2.89;89.57;102610.13;4949368;29;20081;-80
2023/03/03 10:30:46;;;;;;;17.00;7.18;;;;;;;2.94;89.76;102610.06;4950170;28;20383;-78
2023/03/03 10:33:36;;;;;;;16.95;7.30;;;;;;;3.04;88.99;102603.66;4952555;29;20074;-80
2023/03/03 10:36:23;;;;;;;22.48;8.10;;;;;;;3.06;89.27;102607.19;4950628;28;20047;-78
2023/03/03 10:39:19;;;;;;;16.65;7.18;;;;;;;3.21;90.06;102603.41;4952610;29;20129;-80
2023/03/03 10:42:09;;;;;;;23.92;9.20;;;;;;;3.30;87.58;102603.28;4952125;28;20502;-80
2023/03/03 10:44:41;;;;;;;18.27;6.63;;;;;;;3.34;88.02;102605.00;4951819;28;20031;-80
2023/03/03 10:47:28;;;;;;;17.92;8.13;;;;;;;3.41;88.07;102601.34;4951153;28;20047;-82
2023/03/03 10:50:30;;;;;;;18.13;8.15;;;;;;;3.54;87.53;102600.25;4951998;28;20301;-79
2023/03/03 10:53:22;;;;;;;17.95;7.57;;;;;;;3.59;87.88;102592.13;4952415;29;20125;-82
2023/03/03 10:55:59;;;;;;;21.73;8.48;;;;;;;3.69;86.31;102590.16;4950029;29;20031;-79
2023/03/03 10:58:49;;;;;;;23.13;7.68;;;;;;;3.81;87.96;102598.03;4951206;28;20114;-79
2023/03/03 11:01:47;;;;;;;18.63;8.07;;;;;;;4.08;87.27;102604.75;4951917;28;20094;-80
2023/03/03 11:04:31;;;;;;;21.23;10.32;;;;;;;4.11;85.20;102601.16;4932943;29;20043;-82
2023/03/03 11:07:15;;;;;;;16.25;7.30;;;;;;;4.09;84.79;102593.06;4951922;28;20054;-81
2023/03/03 11:09:51;;;;;;;26.50;9.35;;;;;;;4.12;85.86;102595.72;4952451;29;20050;-83
2023/03/03 11:12:38;;;;;;;18.92;9.15;;;;;;;4.17;85.49;102595.63;4951450;28;20043;-81
2023/03/03 11:15:40;;;;;;;15.98;7.93;;;;;;;4.21;85.44;102600.06;4945252;28;20041;-80
2023/03/03 11:18:24;;;;;;;20.35;8.32;;;;;;;4.28;86.07;102591.81;4934895;29;20101;-80
2023/03/03 11:20:53;;;;;;;15.40;7.40;;;;;;;4.40;84.89;102596.09;4951252;28;20146;-81
2023/03/03 11:23:56;;;;;;;27.17;8.82;;;;;;;4.37;86.17;102595.28;4933762;29;20066;-81
2023/03/03 11:26:46;;;;;;;18.48;8.80;;;;;;;4.27;84.78;102597.25;4950972;28;20039;-82
2023/03/03 11:29:29;;;;;;;22.23;8.60;;;;;;;4.16;84.54;102593.88;4937540;29;20479;-81
2023/03/03 11:31:57;;;;;;;;;;;;;;;4.20;86.17;102591.09;4951300;28;20039;-82